Augsburg, Illinois
Current Conditions -  °F | °C
As of 2:35 AM on Friday 21 Nov 2014 (Local Time) from KSLO Reporting Station
NA  
Wind Chill: 24°   Ceiling: NA
Heat Index: 24°   Visibility: 10mi
Dew Point: 18°   Wind: 0mph
Humidity: 79%   Direction: NA
Pressure: 30.39"   Gusts: NA
Location:  38.8463°N, 89.0894°W
Report Text: KSLO 210835Z AUTO 00000KT 10SM M05/M08 A3039 RMK AO2 T10471078
Loading
Personal Weather Stations






























Interactive Weather Map New forecast layout! Learn more

10-Day Weather Forecast

Advertisements
Track Severe Weather on mobile